sensor_id;sensor_type;location;lat;lon;timestamp;P1;durP1;ratioP1;P2;durP2;ratioP2
22679;SDS011;11507;44.858;10.374;2023-07-28T00:02:06;6.65;;;2.30;;
22679;SDS011;11507;44.858;10.374;2023-07-28T00:04:35;6.93;;;2.00;;
22679;SDS011;11507;44.858;10.374;2023-07-28T00:07:02;8.57;;;1.83;;
22679;SDS011;11507;44.858;10.374;2023-07-28T00:09:29;6.10;;;2.30;;
22679;SDS011;11507;44.858;10.374;2023-07-28T00:11:56;5.78;;;2.58;;
22679;SDS011;11507;44.858;10.374;2023-07-28T00:14:23;7.97;;;3.38;;
22679;SDS011;11507;44.858;10.374;2023-07-28T00:16:52;6.95;;;3.83;;
22679;SDS011;11507;44.858;10.374;2023-07-28T00:19:20;9.32;;;3.45;;
22679;SDS011;11507;44.858;10.374;2023-07-28T00:21:49;8.18;;;3.92;;
22679;SDS011;11507;44.858;10.374;2023-07-28T00:24:15;9.82;;;4.05;;
22679;SDS011;11507;44.858;10.374;2023-07-28T00:26:42;7.15;;;4.07;;
22679;SDS011;11507;44.858;10.374;2023-07-28T00:29:10;6.78;;;3.28;;
22679;SDS011;11507;44.858;10.374;2023-07-28T00:31:36;7.15;;;3.58;;
22679;SDS011;11507;44.858;10.374;2023-07-28T00:34:02;8.57;;;3.67;;
22679;SDS011;11507;44.858;10.374;2023-07-28T00:36:29;6.97;;;3.05;;
22679;SDS011;11507;44.858;10.374;2023-07-28T00:38:55;6.55;;;3.00;;
22679;SDS011;11507;44.858;10.374;2023-07-28T00:41:22;13.85;;;4.40;;
22679;SDS011;11507;44.858;10.374;2023-07-28T00:43:51;8.65;;;4.75;;
22679;SDS011;11507;44.858;10.374;2023-07-28T00:46:16;10.25;;;4.70;;
22679;SDS011;11507;44.858;10.374;2023-07-28T00:48:42;10.75;;;4.05;;
22679;SDS011;11507;44.858;10.374;2023-07-28T00:51:10;12.77;;;4.63;;
22679;SDS011;11507;44.858;10.374;2023-07-28T00:53:37;7.70;;;4.55;;
22679;SDS011;11507;44.858;10.374;2023-07-28T00:56:06;7.10;;;3.80;;
22679;SDS011;11507;44.858;10.374;2023-07-28T00:58:33;7.97;;;4.28;;
22679;SDS011;11507;44.858;10.374;2023-07-28T01:00:59;6.05;;;3.80;;
22679;SDS011;11507;44.858;10.374;2023-07-28T01:03:25;10.07;;;4.53;;
22679;SDS011;11507;44.858;10.374;2023-07-28T01:11:29;10.27;;;4.32;;
22679;SDS011;11507;44.858;10.374;2023-07-28T01:13:55;9.57;;;3.80;;
22679;SDS011;11507;44.858;10.374;2023-07-28T01:16:21;10.00;;;3.83;;
22679;SDS011;11507;44.858;10.374;2023-07-28T01:18:47;8.23;;;4.15;;
22679;SDS011;11507;44.858;10.374;2023-07-28T01:21:34;6.82;;;3.72;;
22679;SDS011;11507;44.858;10.374;2023-07-28T01:26:37;7.25;;;3.63;;
22679;SDS011;11507;44.858;10.374;2023-07-28T01:29:05;8.88;;;4.13;;
22679;SDS011;11507;44.858;10.374;2023-07-28T01:31:31;8.70;;;4.20;;
22679;SDS011;11507;44.858;10.374;2023-07-28T01:33:57;8.70;;;3.53;;
22679;SDS011;11507;44.858;10.374;2023-07-28T01:36:23;7.00;;;3.60;;
22679;SDS011;11507;44.858;10.374;2023-07-28T01:38:49;7.28;;;3.65;;
22679;SDS011;11507;44.858;10.374;2023-07-28T01:41:15;10.90;;;3.90;;
22679;SDS011;11507;44.858;10.374;2023-07-28T01:43:40;6.75;;;3.92;;
22679;SDS011;11507;44.858;10.374;2023-07-28T01:46:07;6.78;;;3.90;;
22679;SDS011;11507;44.858;10.374;2023-07-28T01:48:33;9.20;;;3.78;;
22679;SDS011;11507;44.858;10.374;2023-07-28T01:50:59;6.75;;;3.53;;
22679;SDS011;11507;44.858;10.374;2023-07-28T01:53:25;8.05;;;4.25;;
22679;SDS011;11507;44.858;10.374;2023-07-28T01:55:51;8.75;;;4.40;;
22679;SDS011;11507;44.858;10.374;2023-07-28T01:58:16;7.35;;;3.28;;
22679;SDS011;11507;44.858;10.374;2023-07-28T02:00:42;8.23;;;3.70;;
22679;SDS011;11507;44.858;10.374;2023-07-28T02:03:08;8.27;;;2.75;;
22679;SDS011;11507;44.858;10.374;2023-07-28T02:05:34;6.45;;;2.60;;
22679;SDS011;11507;44.858;10.374;2023-07-28T02:08:00;6.32;;;2.47;;
22679;SDS011;11507;44.858;10.374;2023-07-28T02:10:26;5.10;;;2.33;;
22679;SDS011;11507;44.858;10.374;2023-07-28T02:12:55;6.50;;;2.75;;
22679;SDS011;11507;44.858;10.374;2023-07-28T02:15:20;7.40;;;2.65;;
22679;SDS011;11507;44.858;10.374;2023-07-28T02:17:46;6.35;;;2.60;;
22679;SDS011;11507;44.858;10.374;2023-07-28T02:20:12;8.65;;;3.25;;
22679;SDS011;11507;44.858;10.374;2023-07-28T02:22:40;6.53;;;2.30;;
22679;SDS011;11507;44.858;10.374;2023-07-28T02:25:07;7.75;;;2.58;;
22679;SDS011;11507;44.858;10.374;2023-07-28T02:27:33;4.47;;;2.20;;
22679;SDS011;11507;44.858;10.374;2023-07-28T02:29:59;7.40;;;2.50;;
22679;SDS011;11507;44.858;10.374;2023-07-28T02:32:25;9.73;;;2.38;;
22679;SDS011;11507;44.858;10.374;2023-07-28T02:34:53;9.70;;;2.17;;
22679;SDS011;11507;44.858;10.374;2023-07-28T02:37:19;5.50;;;2.20;;
22679;SDS011;11507;44.858;10.374;2023-07-28T02:39:45;5.70;;;2.20;;
22679;SDS011;11507;44.858;10.374;2023-07-28T02:42:11;11.35;;;2.55;;
22679;SDS011;11507;44.858;10.374;2023-07-28T02:44:38;5.32;;;2.47;;
22679;SDS011;11507;44.858;10.374;2023-07-28T02:47:04;8.27;;;2.50;;
22679;SDS011;11507;44.858;10.374;2023-07-28T02:49:30;5.35;;;2.55;;
22679;SDS011;11507;44.858;10.374;2023-07-28T02:51:56;4.65;;;2.40;;
22679;SDS011;11507;44.858;10.374;2023-07-28T02:54:22;9.68;;;2.88;;
22679;SDS011;11507;44.858;10.374;2023-07-28T02:56:49;8.95;;;3.15;;
22679;SDS011;11507;44.858;10.374;2023-07-28T02:59:15;7.80;;;3.05;;
22679;SDS011;11507;44.858;10.374;2023-07-28T03:01:40;7.63;;;3.28;;
22679;SDS011;11507;44.858;10.374;2023-07-28T03:04:07;6.63;;;3.50;;
22679;SDS011;11507;44.858;10.374;2023-07-28T03:06:53;5.40;;;3.30;;
22679;SDS011;11507;44.858;10.374;2023-07-28T03:09:19;7.38;;;3.60;;
22679;SDS011;11507;44.858;10.374;2023-07-28T03:11:52;10.05;;;3.50;;
22679;SDS011;11507;44.858;10.374;2023-07-28T03:14:18;9.07;;;4.05;;
22679;SDS011;11507;44.858;10.374;2023-07-28T03:16:44;10.13;;;4.10;;
22679;SDS011;11507;44.858;10.374;2023-07-28T03:19:10;7.45;;;3.70;;
22679;SDS011;11507;44.858;10.374;2023-07-28T03:21:36;10.10;;;3.60;;
22679;SDS011;11507;44.858;10.374;2023-07-28T03:24:02;8.45;;;3.38;;
22679;SDS011;11507;44.858;10.374;2023-07-28T03:26:28;10.48;;;3.90;;
22679;SDS011;11507;44.858;10.374;2023-07-28T03:28:53;6.93;;;3.58;;
22679;SDS011;11507;44.858;10.374;2023-07-28T03:31:19;9.38;;;3.85;;
22679;SDS011;11507;44.858;10.374;2023-07-28T03:33:45;6.93;;;3.40;;
22679;SDS011;11507;44.858;10.374;2023-07-28T03:36:11;7.28;;;3.05;;
22679;SDS011;11507;44.858;10.374;2023-07-28T03:38:38;6.32;;;3.28;;
22679;SDS011;11507;44.858;10.374;2023-07-28T03:41:04;7.82;;;3.50;;
22679;SDS011;11507;44.858;10.374;2023-07-28T03:43:32;8.35;;;4.05;;
22679;SDS011;11507;44.858;10.374;2023-07-28T03:45:58;8.55;;;4.10;;
22679;SDS011;11507;44.858;10.374;2023-07-28T03:48:26;7.47;;;4.20;;
22679;SDS011;11507;44.858;10.374;2023-07-28T03:50:51;6.88;;;3.88;;
22679;SDS011;11507;44.858;10.374;2023-07-28T03:53:17;9.35;;;3.60;;
22679;SDS011;11507;44.858;10.374;2023-07-28T03:55:43;9.70;;;3.97;;
22679;SDS011;11507;44.858;10.374;2023-07-28T03:58:08;10.90;;;3.78;;
22679;SDS011;11507;44.858;10.374;2023-07-28T04:00:34;9.82;;;3.63;;
22679;SDS011;11507;44.858;10.374;2023-07-28T04:03:00;7.53;;;3.47;;
22679;SDS011;11507;44.858;10.374;2023-07-28T04:05:26;9.27;;;3.67;;
22679;SDS011;11507;44.858;10.374;2023-07-28T04:07:51;7.75;;;3.20;;
22679;SDS011;11507;44.858;10.374;2023-07-28T04:10:17;8.30;;;3.40;;
22679;SDS011;11507;44.858;10.374;2023-07-28T04:12:43;8.35;;;3.60;;
22679;SDS011;11507;44.858;10.374;2023-07-28T04:15:09;7.32;;;3.50;;
22679;SDS011;11507;44.858;10.374;2023-07-28T04:17:35;12.05;;;4.85;;
22679;SDS011;11507;44.858;10.374;2023-07-28T04:20:01;9.35;;;4.18;;
22679;SDS011;11507;44.858;10.374;2023-07-28T04:22:27;7.72;;;3.88;;
22679;SDS011;11507;44.858;10.374;2023-07-28T04:24:54;8.52;;;3.60;;
22679;SDS011;11507;44.858;10.374;2023-07-28T04:27:20;9.18;;;3.80;;
22679;SDS011;11507;44.858;10.374;2023-07-28T04:29:46;9.55;;;4.18;;
22679;SDS011;11507;44.858;10.374;2023-07-28T04:32:17;6.57;;;3.53;;
22679;SDS011;11507;44.858;10.374;2023-07-28T04:34:44;11.88;;;3.47;;
22679;SDS011;11507;44.858;10.374;2023-07-28T04:37:14;7.78;;;3.70;;
22679;SDS011;11507;44.858;10.374;2023-07-28T04:40:00;9.48;;;3.97;;
22679;SDS011;11507;44.858;10.374;2023-07-28T04:42:32;8.27;;;3.40;;
22679;SDS011;11507;44.858;10.374;2023-07-28T04:44:58;9.40;;;3.97;;
22679;SDS011;11507;44.858;10.374;2023-07-28T04:47:23;8.38;;;3.72;;
22679;SDS011;11507;44.858;10.374;2023-07-28T04:49:50;5.43;;;3.10;;
22679;SDS011;11507;44.858;10.374;2023-07-28T04:52:41;7.43;;;3.42;;
22679;SDS011;11507;44.858;10.374;2023-07-28T04:55:30;9.15;;;3.50;;
22679;SDS011;11507;44.858;10.374;2023-07-28T04:57:56;6.20;;;3.00;;
22679;SDS011;11507;44.858;10.374;2023-07-28T05:00:25;12.05;;;4.00;;
22679;SDS011;11507;44.858;10.374;2023-07-28T05:02:51;9.52;;;3.47;;
22679;SDS011;11507;44.858;10.374;2023-07-28T05:05:17;8.25;;;3.30;;
22679;SDS011;11507;44.858;10.374;2023-07-28T05:07:43;9.40;;;3.70;;
22679;SDS011;11507;44.858;10.374;2023-07-28T05:10:13;8.05;;;4.00;;
22679;SDS011;11507;44.858;10.374;2023-07-28T05:12:39;7.47;;;3.67;;
22679;SDS011;11507;44.858;10.374;2023-07-28T05:15:05;12.75;;;3.55;;
22679;SDS011;11507;44.858;10.374;2023-07-28T05:17:37;11.45;;;3.60;;
22679;SDS011;11507;44.858;10.374;2023-07-28T05:20:42;9.75;;;3.40;;
22679;SDS011;11507;44.858;10.374;2023-07-28T05:23:14;8.40;;;3.50;;
22679;SDS011;11507;44.858;10.374;2023-07-28T05:25:40;10.32;;;3.60;;
22679;SDS011;11507;44.858;10.374;2023-07-28T05:28:07;9.10;;;3.50;;
22679;SDS011;11507;44.858;10.374;2023-07-28T05:30:35;9.55;;;3.60;;
22679;SDS011;11507;44.858;10.374;2023-07-28T05:33:01;12.23;;;3.90;;
22679;SDS011;11507;44.858;10.374;2023-07-28T05:35:34;11.05;;;4.30;;
22679;SDS011;11507;44.858;10.374;2023-07-28T05:38:00;10.05;;;3.88;;
22679;SDS011;11507;44.858;10.374;2023-07-28T05:40:26;13.98;;;4.47;;
22679;SDS011;11507;44.858;10.374;2023-07-28T05:42:51;7.13;;;4.03;;
22679;SDS011;11507;44.858;10.374;2023-07-28T05:45:17;10.23;;;4.47;;
22679;SDS011;11507;44.858;10.374;2023-07-28T05:47:43;12.38;;;4.80;;
22679;SDS011;11507;44.858;10.374;2023-07-28T05:50:09;12.07;;;4.13;;
22679;SDS011;11507;44.858;10.374;2023-07-28T05:52:35;8.48;;;4.10;;
22679;SDS011;11507;44.858;10.374;2023-07-28T05:55:01;9.63;;;4.03;;
22679;SDS011;11507;44.858;10.374;2023-07-28T05:57:27;12.02;;;4.30;;
22679;SDS011;11507;44.858;10.374;2023-07-28T05:59:53;11.25;;;4.30;;
22679;SDS011;11507;44.858;10.374;2023-07-28T06:02:19;7.50;;;3.90;;
22679;SDS011;11507;44.858;10.374;2023-07-28T06:04:53;9.32;;;4.30;;
22679;SDS011;11507;44.858;10.374;2023-07-28T06:07:19;7.82;;;4.03;;
22679;SDS011;11507;44.858;10.374;2023-07-28T06:09:45;8.73;;;3.88;;
22679;SDS011;11507;44.858;10.374;2023-07-28T06:12:10;8.07;;;3.72;;
22679;SDS011;11507;44.858;10.374;2023-07-28T06:14:37;11.13;;;4.22;;
22679;SDS011;11507;44.858;10.374;2023-07-28T06:17:05;10.15;;;3.97;;
22679;SDS011;11507;44.858;10.374;2023-07-28T06:19:33;8.88;;;3.67;;
22679;SDS011;11507;44.858;10.374;2023-07-28T06:21:59;7.57;;;3.92;;
22679;SDS011;11507;44.858;10.374;2023-07-28T06:24:25;10.10;;;4.00;;
22679;SDS011;11507;44.858;10.374;2023-07-28T06:26:51;11.57;;;3.70;;
22679;SDS011;11507;44.858;10.374;2023-07-28T06:29:17;9.77;;;3.80;;
22679;SDS011;11507;44.858;10.374;2023-07-28T06:31:43;7.85;;;3.20;;
22679;SDS011;11507;44.858;10.374;2023-07-28T06:34:08;7.47;;;3.38;;
22679;SDS011;11507;44.858;10.374;2023-07-28T06:36:34;7.60;;;3.33;;
22679;SDS011;11507;44.858;10.374;2023-07-28T06:39:00;9.20;;;3.28;;
22679;SDS011;11507;44.858;10.374;2023-07-28T06:41:26;8.18;;;3.40;;
22679;SDS011;11507;44.858;10.374;2023-07-28T06:43:59;7.65;;;3.08;;
22679;SDS011;11507;44.858;10.374;2023-07-28T06:46:27;7.80;;;3.08;;
22679;SDS011;11507;44.858;10.374;2023-07-28T06:48:53;7.60;;;2.95;;
22679;SDS011;11507;44.858;10.374;2023-07-28T06:51:19;5.60;;;2.75;;
22679;SDS011;11507;44.858;10.374;2023-07-28T06:53:45;6.43;;;2.90;;
22679;SDS011;11507;44.858;10.374;2023-07-28T06:56:11;5.82;;;2.72;;
22679;SDS011;11507;44.858;10.374;2023-07-28T06:58:37;7.07;;;2.78;;
22679;SDS011;11507;44.858;10.374;2023-07-28T07:01:02;9.73;;;3.05;;
22679;SDS011;11507;44.858;10.374;2023-07-28T07:03:28;9.60;;;3.45;;
22679;SDS011;11507;44.858;10.374;2023-07-28T07:05:54;10.68;;;3.38;;
22679;SDS011;11507;44.858;10.374;2023-07-28T07:08:20;10.85;;;3.58;;
22679;SDS011;11507;44.858;10.374;2023-07-28T07:10:48;9.52;;;3.83;;
22679;SDS011;11507;44.858;10.374;2023-07-28T07:13:15;6.93;;;3.75;;
22679;SDS011;11507;44.858;10.374;2023-07-28T07:15:41;9.77;;;3.97;;
22679;SDS011;11507;44.858;10.374;2023-07-28T07:18:07;11.98;;;3.97;;
22679;SDS011;11507;44.858;10.374;2023-07-28T07:20:34;9.48;;;3.50;;
22679;SDS011;11507;44.858;10.374;2023-07-28T07:23:00;8.52;;;4.00;;
22679;SDS011;11507;44.858;10.374;2023-07-28T07:25:26;11.25;;;3.80;;
22679;SDS011;11507;44.858;10.374;2023-07-28T07:27:52;9.18;;;3.88;;
22679;SDS011;11507;44.858;10.374;2023-07-28T07:30:19;9.57;;;3.97;;
22679;SDS011;11507;44.858;10.374;2023-07-28T07:32:44;8.68;;;3.83;;
22679;SDS011;11507;44.858;10.374;2023-07-28T07:35:10;5.32;;;3.45;;
22679;SDS011;11507;44.858;10.374;2023-07-28T07:37:37;8.10;;;3.67;;
22679;SDS011;11507;44.858;10.374;2023-07-28T07:40:04;12.25;;;5.00;;
22679;SDS011;11507;44.858;10.374;2023-07-28T07:42:42;8.63;;;4.00;;
22679;SDS011;11507;44.858;10.374;2023-07-28T07:45:11;12.75;;;4.30;;
22679;SDS011;11507;44.858;10.374;2023-07-28T07:47:38;11.38;;;4.20;;
22679;SDS011;11507;44.858;10.374;2023-07-28T07:50:05;9.25;;;3.85;;
22679;SDS011;11507;44.858;10.374;2023-07-28T07:52:34;11.75;;;4.05;;
22679;SDS011;11507;44.858;10.374;2023-07-28T07:55:02;10.07;;;4.47;;
22679;SDS011;11507;44.858;10.374;2023-07-28T07:57:29;11.38;;;4.20;;
22679;SDS011;11507;44.858;10.374;2023-07-28T07:59:56;11.48;;;4.53;;
22679;SDS011;11507;44.858;10.374;2023-07-28T08:02:23;9.52;;;4.50;;
22679;SDS011;11507;44.858;10.374;2023-07-28T08:04:48;10.82;;;4.00;;
22679;SDS011;11507;44.858;10.374;2023-07-28T08:07:15;9.02;;;4.40;;
22679;SDS011;11507;44.858;10.374;2023-07-28T08:09:44;10.18;;;5.15;;
22679;SDS011;11507;44.858;10.374;2023-07-28T08:12:11;9.13;;;4.90;;
22679;SDS011;11507;44.858;10.374;2023-07-28T08:14:37;8.23;;;5.15;;
22679;SDS011;11507;44.858;10.374;2023-07-28T08:17:03;13.73;;;6.13;;
22679;SDS011;11507;44.858;10.374;2023-07-28T08:19:29;11.05;;;5.25;;
22679;SDS011;11507;44.858;10.374;2023-07-28T08:21:56;8.00;;;4.88;;
22679;SDS011;11507;44.858;10.374;2023-07-28T08:24:21;8.77;;;5.22;;
22679;SDS011;11507;44.858;10.374;2023-07-28T08:26:47;10.30;;;5.53;;
22679;SDS011;11507;44.858;10.374;2023-07-28T08:29:14;10.68;;;5.38;;
22679;SDS011;11507;44.858;10.374;2023-07-28T08:31:40;12.02;;;4.85;;
22679;SDS011;11507;44.858;10.374;2023-07-28T08:34:07;12.13;;;5.18;;
22679;SDS011;11507;44.858;10.374;2023-07-28T08:36:33;12.00;;;5.15;;
22679;SDS011;11507;44.858;10.374;2023-07-28T08:38:59;9.30;;;5.15;;
22679;SDS011;11507;44.858;10.374;2023-07-28T08:41:25;10.02;;;4.95;;
22679;SDS011;11507;44.858;10.374;2023-07-28T08:43:52;11.00;;;5.43;;
22679;SDS011;11507;44.858;10.374;2023-07-28T08:46:19;11.75;;;5.65;;
22679;SDS011;11507;44.858;10.374;2023-07-28T08:48:45;7.97;;;5.30;;
22679;SDS011;11507;44.858;10.374;2023-07-28T08:51:12;9.23;;;4.63;;
22679;SDS011;11507;44.858;10.374;2023-07-28T08:53:38;7.70;;;4.35;;
22679;SDS011;11507;44.858;10.374;2023-07-28T08:56:05;10.30;;;5.13;;
22679;SDS011;11507;44.858;10.374;2023-07-28T08:58:32;9.85;;;4.80;;
22679;SDS011;11507;44.858;10.374;2023-07-28T09:00:59;16.30;;;5.60;;
22679;SDS011;11507;44.858;10.374;2023-07-28T09:03:28;9.60;;;5.47;;
22679;SDS011;11507;44.858;10.374;2023-07-28T09:06:01;9.43;;;4.25;;
22679;SDS011;11507;44.858;10.374;2023-07-28T09:08:30;11.27;;;4.90;;
22679;SDS011;11507;44.858;10.374;2023-07-28T09:10:57;10.75;;;4.85;;
22679;SDS011;11507;44.858;10.374;2023-07-28T09:13:39;11.63;;;4.72;;
22679;SDS011;11507;44.858;10.374;2023-07-28T09:16:16;11.98;;;4.70;;
22679;SDS011;11507;44.858;10.374;2023-07-28T09:18:46;10.60;;;4.60;;
22679;SDS011;11507;44.858;10.374;2023-07-28T09:21:18;6.15;;;3.17;;
22679;SDS011;11507;44.858;10.374;2023-07-28T09:23:47;11.38;;;3.95;;
22679;SDS011;11507;44.858;10.374;2023-07-28T09:26:21;6.80;;;3.90;;
22679;SDS011;11507;44.858;10.374;2023-07-28T09:28:48;10.07;;;4.40;;
22679;SDS011;11507;44.858;10.374;2023-07-28T09:31:14;8.80;;;4.40;;
22679;SDS011;11507;44.858;10.374;2023-07-28T09:33:41;6.78;;;3.63;;
22679;SDS011;11507;44.858;10.374;2023-07-28T09:36:14;11.05;;;5.40;;
22679;SDS011;11507;44.858;10.374;2023-07-28T09:38:44;7.93;;;3.65;;
22679;SDS011;11507;44.858;10.374;2023-07-28T09:41:10;7.82;;;3.40;;
22679;SDS011;11507;44.858;10.374;2023-07-28T09:43:36;6.47;;;3.53;;
22679;SDS011;11507;44.858;10.374;2023-07-28T09:46:04;9.80;;;4.07;;
22679;SDS011;11507;44.858;10.374;2023-07-28T09:48:32;7.97;;;3.95;;
22679;SDS011;11507;44.858;10.374;2023-07-28T09:51:10;9.93;;;3.55;;
22679;SDS011;11507;44.858;10.374;2023-07-28T09:53:40;7.85;;;3.95;;
22679;SDS011;11507;44.858;10.374;2023-07-28T09:56:15;7.80;;;4.13;;
22679;SDS011;11507;44.858;10.374;2023-07-28T09:58:51;9.02;;;3.90;;
22679;SDS011;11507;44.858;10.374;2023-07-28T10:01:18;10.27;;;4.63;;
22679;SDS011;11507;44.858;10.374;2023-07-28T10:03:47;8.73;;;3.88;;
22679;SDS011;11507;44.858;10.374;2023-07-28T10:06:13;8.70;;;4.47;;
22679;SDS011;11507;44.858;10.374;2023-07-28T10:08:41;8.93;;;4.95;;
22679;SDS011;11507;44.858;10.374;2023-07-28T10:11:09;9.50;;;3.90;;
22679;SDS011;11507;44.858;10.374;2023-07-28T10:13:40;8.25;;;3.67;;
22679;SDS011;11507;44.858;10.374;2023-07-28T10:16:07;6.80;;;4.45;;
22679;SDS011;11507;44.858;10.374;2023-07-28T10:18:39;7.60;;;4.20;;
22679;SDS011;11507;44.858;10.374;2023-07-28T10:21:06;10.38;;;3.90;;
22679;SDS011;11507;44.858;10.374;2023-07-28T10:23:39;8.27;;;4.03;;
22679;SDS011;11507;44.858;10.374;2023-07-28T10:26:05;9.57;;;4.45;;
22679;SDS011;11507;44.858;10.374;2023-07-28T10:28:32;6.57;;;3.70;;
22679;SDS011;11507;44.858;10.374;2023-07-28T10:31:04;8.43;;;4.70;;
22679;SDS011;11507;44.858;10.374;2023-07-28T10:33:43;8.35;;;4.82;;
22679;SDS011;11507;44.858;10.374;2023-07-28T10:42:08;8.52;;;4.05;;
22679;SDS011;11507;44.858;10.374;2023-07-28T10:44:36;9.68;;;5.22;;
22679;SDS011;11507;44.858;10.374;2023-07-28T10:47:07;10.60;;;4.20;;
22679;SDS011;11507;44.858;10.374;2023-07-28T10:49:34;10.70;;;4.03;;
22679;SDS011;11507;44.858;10.374;2023-07-28T10:52:00;11.13;;;4.15;;
22679;SDS011;11507;44.858;10.374;2023-07-28T10:54:26;6.15;;;4.03;;
22679;SDS011;11507;44.858;10.374;2023-07-28T10:56:52;8.05;;;4.32;;
22679;SDS011;11507;44.858;10.374;2023-07-28T10:59:17;10.85;;;4.55;;
22679;SDS011;11507;44.858;10.374;2023-07-28T11:01:43;12.70;;;4.20;;
22679;SDS011;11507;44.858;10.374;2023-07-28T11:04:16;7.22;;;3.80;;
22679;SDS011;11507;44.858;10.374;2023-07-28T11:06:45;6.95;;;3.50;;
22679;SDS011;11507;44.858;10.374;2023-07-28T11:09:13;8.80;;;4.13;;
22679;SDS011;11507;44.858;10.374;2023-07-28T11:11:40;10.07;;;3.53;;
22679;SDS011;11507;44.858;10.374;2023-07-28T11:14:08;8.13;;;3.50;;
22679;SDS011;11507;44.858;10.374;2023-07-28T11:16:38;6.55;;;3.40;;
22679;SDS011;11507;44.858;10.374;2023-07-28T11:19:10;8.05;;;4.15;;
22679;SDS011;11507;44.858;10.374;2023-07-28T11:21:43;6.10;;;3.35;;
22679;SDS011;11507;44.858;10.374;2023-07-28T11:24:09;7.95;;;4.10;;
22679;SDS011;11507;44.858;10.374;2023-07-28T11:26:37;6.82;;;3.13;;
22679;SDS011;11507;44.858;10.374;2023-07-28T11:29:04;7.45;;;3.58;;
22679;SDS011;11507;44.858;10.374;2023-07-28T11:31:30;8.75;;;3.78;;
22679;SDS011;11507;44.858;10.374;2023-07-28T11:33:56;7.10;;;3.63;;
22679;SDS011;11507;44.858;10.374;2023-07-28T11:36:31;9.27;;;3.67;;
22679;SDS011;11507;44.858;10.374;2023-07-28T11:38:57;5.88;;;3.92;;
22679;SDS011;11507;44.858;10.374;2023-07-28T11:41:24;8.52;;;3.85;;
22679;SDS011;11507;44.858;10.374;2023-07-28T11:43:52;7.50;;;3.60;;
22679;SDS011;11507;44.858;10.374;2023-07-28T11:46:37;6.80;;;3.10;;
22679;SDS011;11507;44.858;10.374;2023-07-28T11:49:11;9.55;;;3.60;;
22679;SDS011;11507;44.858;10.374;2023-07-28T11:51:50;8.13;;;3.58;;
22679;SDS011;11507;44.858;10.374;2023-07-28T11:54:19;6.78;;;3.42;;
22679;SDS011;11507;44.858;10.374;2023-07-28T11:56:47;9.23;;;3.25;;
22679;SDS011;11507;44.858;10.374;2023-07-28T11:59:15;7.00;;;3.17;;
22679;SDS011;11507;44.858;10.374;2023-07-28T12:04:38;5.20;;;2.90;;
22679;SDS011;11507;44.858;10.374;2023-07-28T12:07:06;5.50;;;3.00;;
22679;SDS011;11507;44.858;10.374;2023-07-28T12:09:55;8.82;;;3.03;;
22679;SDS011;11507;44.858;10.374;2023-07-28T12:12:28;6.72;;;2.95;;
22679;SDS011;11507;44.858;10.374;2023-07-28T12:14:57;6.97;;;2.85;;
22679;SDS011;11507;44.858;10.374;2023-07-28T12:20:02;8.55;;;3.00;;
22679;SDS011;11507;44.858;10.374;2023-07-28T12:22:39;9.60;;;3.05;;
22679;SDS011;11507;44.858;10.374;2023-07-28T12:25:06;6.50;;;3.42;;
22679;SDS011;11507;44.858;10.374;2023-07-28T12:27:32;6.45;;;3.00;;
22679;SDS011;11507;44.858;10.374;2023-07-28T12:29:59;10.07;;;2.95;;
22679;SDS011;11507;44.858;10.374;2023-07-28T12:32:25;7.30;;;3.00;;
22679;SDS011;11507;44.858;10.374;2023-07-28T12:34:51;6.15;;;2.33;;
22679;SDS011;11507;44.858;10.374;2023-07-28T12:37:17;5.97;;;3.20;;
22679;SDS011;11507;44.858;10.374;2023-07-28T12:39:43;5.13;;;2.50;;
22679;SDS011;11507;44.858;10.374;2023-07-28T12:42:10;8.95;;;3.05;;
22679;SDS011;11507;44.858;10.374;2023-07-28T12:44:36;6.72;;;2.92;;
22679;SDS011;11507;44.858;10.374;2023-07-28T12:47:03;6.57;;;2.97;;
22679;SDS011;11507;44.858;10.374;2023-07-28T12:49:30;6.70;;;3.30;;
22679;SDS011;11507;44.858;10.374;2023-07-28T12:51:57;7.18;;;2.97;;
22679;SDS011;11507;44.858;10.374;2023-07-28T12:54:24;9.55;;;2.63;;
22679;SDS011;11507;44.858;10.374;2023-07-28T12:56:51;10.63;;;3.15;;
22679;SDS011;11507;44.858;10.374;2023-07-28T12:59:18;7.78;;;2.95;;
22679;SDS011;11507;44.858;10.374;2023-07-28T13:01:44;6.40;;;2.80;;
22679;SDS011;11507;44.858;10.374;2023-07-28T13:04:10;7.95;;;3.22;;
22679;SDS011;11507;44.858;10.374;2023-07-28T13:06:36;6.25;;;2.80;;
22679;SDS011;11507;44.858;10.374;2023-07-28T13:09:02;5.07;;;2.65;;
22679;SDS011;11507;44.858;10.374;2023-07-28T13:11:29;4.95;;;2.55;;
22679;SDS011;11507;44.858;10.374;2023-07-28T13:13:55;6.15;;;2.70;;
22679;SDS011;11507;44.858;10.374;2023-07-28T13:16:21;5.80;;;2.65;;
22679;SDS011;11507;44.858;10.374;2023-07-28T13:18:47;6.43;;;2.45;;
22679;SDS011;11507;44.858;10.374;2023-07-28T13:21:13;5.28;;;2.72;;
22679;SDS011;11507;44.858;10.374;2023-07-28T13:23:40;7.43;;;3.13;;
22679;SDS011;11507;44.858;10.374;2023-07-28T13:26:05;6.75;;;2.67;;
22679;SDS011;11507;44.858;10.374;2023-07-28T13:28:32;5.30;;;2.45;;
22679;SDS011;11507;44.858;10.374;2023-07-28T13:31:00;7.00;;;2.80;;
22679;SDS011;11507;44.858;10.374;2023-07-28T13:33:29;5.80;;;3.10;;
